Dunn Center, North Dakota
Current Conditions -  °F | °C
As of 12:56 PM on Tuesday 21 Oct 2014 (Local Time) from KDIK Reporting Station
Clear Clear  
Wind Chill: 72°   Ceiling: Unl
Heat Index: 72°   Visibility: 10mi
Dew Point: 45°   Wind: 14mph
Humidity: 38%   Direction: 160°SSE
Pressure: 29.65"   Gusts: NA
Location:  47.35°N, 102.62°W
Report Text: KDIK 211856Z AUTO 16012KT 10SM CLR 22/07 A2965 RMK AO2 SLP034 T02220072
Loading
Personal Weather Stations






























Interactive Weather Map
Tropical Storm Tracking
New forecast layout! Learn more

10-Day Weather Forecast

Advertisements
Track Severe Weather on mobile